Costa Favolosa — ICPK — position and weather

sailwx.info

Track history (hours):
 
Tides and Currents Weather Stations Pressure Air Temp Water Temp Dewpoint Dewpoint Depression Visibility Wind Speed Wind Dir Waves Ship Positions

Costa Favolosa

Last reported at 2017-Jan-20 09:28 UTC. Time now 2017-Jan-21 04:28 UTC.
Position N 14°56' W 061°31'.

Length 291 m; draft 8.3 m.

Type: Ship. MMSI: 247311100.

Date/timePositionNaut miles runAvg speedWind from/ knotsBaromVisibWave heightAir tempDewpointWater temp
2017-Jan-20 09:28N 14°56' W 061°31'1312.6
2017-Jan-20 08:24N 15°08' W 061°37'5912.2
2017-Jan-20 03:33N 16°03' W 062°01'1212.2
2017-Jan-20 02:34N 16°15' W 062°03'1212.2
2017-Jan-20 01:34N 16°27' W 062°03'1818.2
2017-Jan-20 00:34N 16°46' W 062°04'1918.6
2017-Jan-19 23:33N 17°04' W 062°07'1414.1
2017-Jan-19 22:33N 17°08' W 061°53'2 2.1
2017-Jan-19 21:31N 17°07' W 061°51'0 0.0
2017-Jan-19 20:31N 17°07' W 061°51'0 0.0
2017-Jan-19 19:33N 17°07' W 061°51'0 0.0
2017-Jan-19 18:33N 17°07' W 061°51'0 0.0
2017-Jan-19 17:33N 17°07' W 061°51'0 0.0
2017-Jan-19 16:33N 17°07' W 061°51'0 0.0
2017-Jan-19 15:33N 17°07' W 061°51'0 0.0
2017-Jan-19 14:33N 17°07' W 061°51'0 0.0
2017-Jan-19 13:33N 17°07' W 061°51'0 0.0
2017-Jan-19 12:33N 17°07' W 061°51'0 0.0
2017-Jan-19 11:33N 17°07' W 061°51'0 0.0
2017-Jan-19 10:33N 17°07' W 061°51'6 5.9
2017-Jan-19 09:33N 17°10' W 061°57'1110.9
2017-Jan-19 08:33N 17°07' W 062°08'1212.0
2017-Jan-19 07:33N 16°58' W 062°16'1111.5
2017-Jan-19 06:33N 16°49' W 062°23'1110.6
2017-Jan-19 05:33N 16°43' W 062°33'  
2017-Jan-15 23:13N 17°51' W 063°25'1921.2
2017-Jan-15 22:20N 17°60' W 063°07'1 0.1
2017-Jan-15 15:27N 17°60' W 063°06'1615.7
2017-Jan-15 14:25N 17°44' W 063°06'1213.5
2017-Jan-15 13:33N 17°32' W 063°06'5812.9
2017-Jan-15 09:03N 16°43' W 062°35'1718.1
2017-Jan-15 08:06N 16°30' W 062°23'1018.3
2017-Jan-15 07:33N 16°22' W 062°17'3918.3
2017-Jan-15 05:26N 15°54' W 061°48'1916.9
2017-Jan-15 04:18N 16°02' W 061°30'811.5
2017-Jan-15 03:33N 16°10' W 061°32'5 4.6
2017-Jan-15 02:33N 16°14' W 061°32'0 0.0
2017-Jan-15 01:33N 16°14' W 061°32'0 0.0
2017-Jan-15 00:33N 16°14' W 061°32'0 0.0
2017-Jan-14 23:33N 16°14' W 061°32'0 0.0
2017-Jan-14 22:33N 16°14' W 061°32'0 0.0
2017-Jan-14 21:33N 16°14' W 061°32'0 0.0
2017-Jan-14 20:33N 16°14' W 061°32'0 0.0
2017-Jan-14 19:33N 16°14' W 061°32'0 0.0
2017-Jan-14 18:33N 16°14' W 061°32'0 0.0
2017-Jan-14 17:33N 16°14' W 061°32'0 0.0
2017-Jan-14 16:33N 16°14' W 061°32'0 0.0
2017-Jan-14 15:33N 16°14' W 061°32'0 0.0
2017-Jan-14 14:33N 16°14' W 061°32'0 0.0
2017-Jan-14 13:33N 16°14' W 061°32'0 0.0
2017-Jan-14 12:33N 16°14' W 061°32'0 0.0
2017-Jan-14 11:33N 16°14' W 061°32'5 4.8
2017-Jan-14 10:33N 16°09' W 061°32'1211.5
2017-Jan-14 09:33N 15°58' W 061°29'1715.0
2017-Jan-14 08:25N 15°43' W 061°38'1011.7
2017-Jan-14 07:33N 15°34' W 061°43'2410.8
2017-Jan-14 05:21N 15°11' W 061°38'2 0.1
2017-Jan-13 07:33N 15°09' W 061°38'1912.8
2017-Jan-13 06:03N 15°27' W 061°45'4512.8
2017-Jan-13 02:33N 16°09' W 062°01'1717.4
2017-Jan-13 01:33N 16°26' W 062°03'1818.3
2017-Jan-13 00:34N 16°44' W 062°03'1818.2
2017-Jan-12 23:34N 17°02' W 062°03'1111.1
2017-Jan-12 22:33N 17°08' W 061°54'3 2.9
2017-Jan-12 21:32N 17°07' W 061°51'0 0.0
2017-Jan-12 20:32N 17°07' W 061°51'0 0.0
2017-Jan-12 19:32N 17°07' W 061°51'0 0.0
2017-Jan-12 18:32N 17°07' W 061°51'0 0.0
2017-Jan-12 17:29N 17°07' W 061°51'0 0.0
2017-Jan-12 16:32N 17°07' W 061°51'0 0.0
2017-Jan-12 15:32N 17°07' W 061°51'0 0.0
2017-Jan-12 14:32N 17°07' W 061°51'0 0.0
2017-Jan-12 13:32N 17°07' W 061°51'0 0.0
2017-Jan-12 12:32N 17°07' W 061°51'0 0.0
2017-Jan-12 11:29N 17°07' W 061°51'0 0.0
2017-Jan-12 10:33N 17°07' W 061°51'5 5.1
2017-Jan-12 09:33N 17°09' W 061°56'1211.9
2017-Jan-12 08:33N 17°15' W 062°07'1211.7
2017-Jan-12 07:33N 17°21' W 062°17'1211.6
2017-Jan-12 06:33N 17°28' W 062°27'1211.7
2017-Jan-12 05:33N 17°35' W 062°37'2412.0
2017-Jan-12 03:33N 17°49' W 062°57'1311.4
2017-Jan-12 02:25N 17°58' W 063°07'4 0.5
2017-Jan-11 16:31N 18°01' W 063°03'1211.1
2017-Jan-11 15:25N 17°56' W 063°15'1416.5
2017-Jan-11 14:33N 17°49' W 063°28'  
Track history (hours):
 
Tides and Currents Weather Stations Pressure Air Temp Water Temp Dewpoint Dewpoint Depression Visibility Wind Speed Wind Dir Waves Ship Positions

Costa Favolosa

Last reported at 2017-Jan-20 09:28 UTC. Time now 2017-Jan-21 04:28 UTC.
Position N 14°56' W 061°31'.

Length 291 m; draft 8.3 m.

Type: Ship. MMSI: 247311100.

Date/timePositionNaut miles runAvg speedWind from/ knotsBaromVisibWave heightAir tempDewpointWater temp
2017-Jan-20 09:28N 14°56' W 061°31'1312.6
2017-Jan-20 08:24N 15°08' W 061°37'5912.2
2017-Jan-20 03:33N 16°03' W 062°01'1212.2
2017-Jan-20 02:34N 16°15' W 062°03'1212.2
2017-Jan-20 01:34N 16°27' W 062°03'1818.2
2017-Jan-20 00:34N 16°46' W 062°04'1918.6
2017-Jan-19 23:33N 17°04' W 062°07'1414.1
2017-Jan-19 22:33N 17°08' W 061°53'2 2.1
2017-Jan-19 21:31N 17°07' W 061°51'0 0.0
2017-Jan-19 20:31N 17°07' W 061°51'0 0.0
2017-Jan-19 19:33N 17°07' W 061°51'0 0.0
2017-Jan-19 18:33N 17°07' W 061°51'0 0.0
2017-Jan-19 17:33N 17°07' W 061°51'0 0.0
2017-Jan-19 16:33N 17°07' W 061°51'0 0.0
2017-Jan-19 15:33N 17°07' W 061°51'0 0.0
2017-Jan-19 14:33N 17°07' W 061°51'0 0.0
2017-Jan-19 13:33N 17°07' W 061°51'0 0.0
2017-Jan-19 12:33N 17°07' W 061°51'0 0.0
2017-Jan-19 11:33N 17°07' W 061°51'0 0.0
2017-Jan-19 10:33N 17°07' W 061°51'6 5.9
2017-Jan-19 09:33N 17°10' W 061°57'1110.9
2017-Jan-19 08:33N 17°07' W 062°08'1212.0
2017-Jan-19 07:33N 16°58' W 062°16'1111.5
2017-Jan-19 06:33N 16°49' W 062°23'1110.6
2017-Jan-19 05:33N 16°43' W 062°33'  
2017-Jan-15 23:13N 17°51' W 063°25'1921.2
2017-Jan-15 22:20N 17°60' W 063°07'1 0.1
2017-Jan-15 15:27N 17°60' W 063°06'1615.7
2017-Jan-15 14:25N 17°44' W 063°06'1213.5
2017-Jan-15 13:33N 17°32' W 063°06'5812.9
2017-Jan-15 09:03N 16°43' W 062°35'1718.1
2017-Jan-15 08:06N 16°30' W 062°23'1018.3
2017-Jan-15 07:33N 16°22' W 062°17'3918.3
2017-Jan-15 05:26N 15°54' W 061°48'1916.9
2017-Jan-15 04:18N 16°02' W 061°30'811.5
2017-Jan-15 03:33N 16°10' W 061°32'5 4.6
2017-Jan-15 02:33N 16°14' W 061°32'0 0.0
2017-Jan-15 01:33N 16°14' W 061°32'0 0.0
2017-Jan-15 00:33N 16°14' W 061°32'0 0.0
2017-Jan-14 23:33N 16°14' W 061°32'0 0.0
2017-Jan-14 22:33N 16°14' W 061°32'0 0.0
2017-Jan-14 21:33N 16°14' W 061°32'0 0.0
2017-Jan-14 20:33N 16°14' W 061°32'0 0.0
2017-Jan-14 19:33N 16°14' W 061°32'0 0.0
2017-Jan-14 18:33N 16°14' W 061°32'0 0.0
2017-Jan-14 17:33N 16°14' W 061°32'0 0.0
2017-Jan-14 16:33N 16°14' W 061°32'0 0.0
2017-Jan-14 15:33N 16°14' W 061°32'0 0.0
2017-Jan-14 14:33N 16°14' W 061°32'0 0.0
2017-Jan-14 13:33N 16°14' W 061°32'0 0.0
2017-Jan-14 12:33N 16°14' W 061°32'0 0.0
2017-Jan-14 11:33N 16°14' W 061°32'5 4.8
2017-Jan-14 10:33N 16°09' W 061°32'1211.5
2017-Jan-14 09:33N 15°58' W 061°29'1715.0
2017-Jan-14 08:25N 15°43' W 061°38'1011.7
2017-Jan-14 07:33N 15°34' W 061°43'2410.8
2017-Jan-14 05:21N 15°11' W 061°38'2 0.1
2017-Jan-13 07:33N 15°09' W 061°38'1912.8
2017-Jan-13 06:03N 15°27' W 061°45'4512.8
2017-Jan-13 02:33N 16°09' W 062°01'1717.4
2017-Jan-13 01:33N 16°26' W 062°03'1818.3
2017-Jan-13 00:34N 16°44' W 062°03'1818.2
2017-Jan-12 23:34N 17°02' W 062°03'1111.1
2017-Jan-12 22:33N 17°08' W 061°54'3 2.9
2017-Jan-12 21:32N 17°07' W 061°51'0 0.0
2017-Jan-12 20:32N 17°07' W 061°51'0 0.0
2017-Jan-12 19:32N 17°07' W 061°51'0 0.0
2017-Jan-12 18:32N 17°07' W 061°51'0 0.0
2017-Jan-12 17:29N 17°07' W 061°51'0 0.0
2017-Jan-12 16:32N 17°07' W 061°51'0 0.0
2017-Jan-12 15:32N 17°07' W 061°51'0 0.0
2017-Jan-12 14:32N 17°07' W 061°51'0 0.0
2017-Jan-12 13:32N 17°07' W 061°51'0 0.0
2017-Jan-12 12:32N 17°07' W 061°51'0 0.0
2017-Jan-12 11:29N 17°07' W 061°51'0 0.0
2017-Jan-12 10:33N 17°07' W 061°51'5 5.1
2017-Jan-12 09:33N 17°09' W 061°56'1211.9
2017-Jan-12 08:33N 17°15' W 062°07'1211.7
2017-Jan-12 07:33N 17°21' W 062°17'1211.6
2017-Jan-12 06:33N 17°28' W 062°27'1211.7
2017-Jan-12 05:33N 17°35' W 062°37'2412.0
2017-Jan-12 03:33N 17°49' W 062°57'1311.4
2017-Jan-12 02:25N 17°58' W 063°07'4 0.5
2017-Jan-11 16:31N 18°01' W 063°03'1211.1
2017-Jan-11 15:25N 17°56' W 063°15'1416.5
2017-Jan-11 14:33N 17°49' W 063°28'  

Dump ship's entire track history